Time;durP1;ratioP1;P1;durP2;ratioP2;P2;SDS_P1;SDS_P2;PMS_P1;PMS_P2;Temp;Humidity;BMP_temperature;BMP_pressure;BME280_temperature;BME280_humidity;BME280_pressure;Samples;Min_cycle;Max_cycle;Signal;HPM_P1;HPM_P2
2022/09/01 00:00:53;;;;;;;1.02;0.80;;;;;;;-145.06;100.00;60892.56;4794660;28;20042;-83
2022/09/01 00:03:32;;;;;;;2.23;1.10;;;;;;;-145.06;100.00;60892.56;4785167;28;20073;-84
2022/09/01 00:06:11;;;;;;;0.90;0.80;;;;;;;-145.06;100.00;60892.56;4794993;28;20034;-83
2022/09/01 00:08:55;;;;;;;1.33;0.80;;;;;;;-145.06;100.00;60892.56;4784087;28;20034;-84
2022/09/01 00:11:35;;;;;;;1.00;0.90;;;;;;;-145.06;100.00;60892.56;4781506;28;20038;-84
2022/09/01 00:14:14;;;;;;;0.93;0.80;;;;;;;-145.06;100.00;60892.56;4781439;28;20304;-84
2022/09/01 00:16:53;;;;;;;1.42;0.90;;;;;;;-145.06;100.00;60892.56;4781168;28;20405;-83
2022/09/01 00:19:34;;;;;;;1.85;1.10;;;;;;;-145.06;100.00;60892.56;4793118;28;20047;-83
2022/09/01 00:22:13;;;;;;;1.10;0.90;;;;;;;-145.06;100.00;60892.56;4782720;28;20425;-84
2022/09/01 00:24:52;;;;;;;1.15;1.00;;;;;;;-145.06;100.00;60892.56;4794324;28;20026;-84
2022/09/01 00:27:31;;;;;;;0.77;0.60;;;;;;;-145.06;100.00;60892.56;4797197;28;20328;-84
2022/09/01 00:30:11;;;;;;;1.35;0.90;;;;;;;-145.06;100.00;60892.56;4794758;28;20030;-84
2022/09/01 00:32:50;;;;;;;0.90;0.60;;;;;;;-145.06;100.00;60892.56;4781323;28;20031;-83
2022/09/01 00:35:29;;;;;;;0.83;0.73;;;;;;;-145.06;100.00;60892.56;4793390;28;20070;-83
2022/09/01 00:38:08;;;;;;;1.17;1.07;;;;;;;-145.06;100.00;60892.56;4797710;28;21196;-83
2022/09/01 00:40:48;;;;;;;1.02;0.75;;;;;;;-145.06;100.00;60892.56;4787416;28;20277;-83
2022/09/01 00:43:44;;;;;;;0.80;0.70;;;;;;;-145.06;100.00;60892.56;4793177;28;20501;-84
2022/09/01 00:46:33;;;;;;;0.95;0.70;;;;;;;-145.06;100.00;60892.56;4790848;28;20357;-84
2022/09/01 00:49:17;;;;;;;0.77;0.77;;;;;;;-145.06;100.00;60892.56;4794805;28;20038;-83
2022/09/01 00:52:05;;;;;;;1.17;0.88;;;;;;;-145.06;100.00;60892.56;4781520;28;20489;-83
2022/09/01 00:54:49;;;;;;;1.88;0.82;;;;;;;-145.06;100.00;60892.56;4792955;28;20070;-84
2022/09/01 00:57:28;;;;;;;0.82;0.70;;;;;;;-145.06;100.00;60892.56;4797636;28;20027;-83
2022/09/01 01:00:13;;;;;;;0.85;0.70;;;;;;;-145.06;100.00;60892.56;4780199;28;20034;-84
2022/09/01 01:02:54;;;;;;;1.42;0.98;;;;;;;-145.06;100.00;60892.56;4785768;28;20378;-84
2022/09/01 01:05:52;;;;;;;1.33;0.88;;;;;;;-145.06;100.00;60892.56;4796281;28;20382;-83
2022/09/01 01:08:34;;;;;;;0.80;0.65;;;;;;;-145.06;100.00;60892.56;4790921;28;20027;-84
2022/09/01 01:11:17;;;;;;;1.02;0.93;;;;;;;-145.06;100.00;60892.56;4793471;28;20058;-83
2022/09/01 01:14:10;;;;;;;1.23;0.90;;;;;;;-145.06;100.00;60892.56;4795537;28;20042;-84
2022/09/01 01:16:51;;;;;;;1.63;0.95;;;;;;;-145.06;100.00;60892.56;4786479;28;20346;-84
2022/09/01 01:23:07;;;;;;;0.80;0.80;;;;;;;-145.06;100.00;60892.56;4797020;28;20038;-83
2022/09/01 01:25:52;;;;;;;2.08;1.00;;;;;;;-145.06;100.00;60892.56;4790732;28;20038;-83
2022/09/01 01:28:34;;;;;;;1.85;1.25;;;;;;;-145.06;100.00;60892.56;4794690;28;20019;-83
2022/09/01 01:31:17;;;;;;;1.30;0.80;;;;;;;-145.06;100.00;60892.56;4779885;28;20031;-84
2022/09/01 01:33:56;;;;;;;1.15;1.00;;;;;;;-145.06;100.00;60892.56;4794332;28;20027;-84
2022/09/01 01:36:37;;;;;;;1.02;0.93;;;;;;;-145.06;100.00;60892.56;4795522;28;20034;-83
2022/09/01 01:39:24;;;;;;;1.20;1.00;;;;;;;-145.06;100.00;60892.56;4778120;28;20022;-83
2022/09/01 01:42:05;;;;;;;0.88;0.73;;;;;;;-145.06;100.00;60892.56;4783277;28;20369;-84
2022/09/01 01:44:47;;;;;;;1.30;0.85;;;;;;;-145.06;100.00;60892.56;4781609;28;20133;-84
2022/09/01 01:47:26;;;;;;;1.20;0.90;;;;;;;-145.06;100.00;60892.56;4795980;28;20046;-84
2022/09/01 01:50:08;;;;;;;1.02;0.90;;;;;;;-145.06;100.00;60892.56;4792423;28;20038;-84
2022/09/01 01:52:47;;;;;;;1.20;1.00;;;;;;;-145.06;100.00;60892.56;4786004;28;20039;-84
2022/09/01 01:55:29;;;;;;;1.20;0.85;;;;;;;-145.06;100.00;60892.56;4781070;28;20058;-84
2022/09/01 01:58:13;;;;;;;1.42;1.00;;;;;;;-145.06;100.00;60892.56;4778442;28;20031;-84
2022/09/01 02:00:54;;;;;;;1.00;0.90;;;;;;;-145.06;100.00;60892.56;4781200;28;20095;-84
2022/09/01 02:03:37;;;;;;;1.10;0.90;;;;;;;-145.06;100.00;60892.56;4791911;28;20047;-83
2022/09/01 02:06:16;;;;;;;3.35;1.10;;;;;;;-145.06;100.00;60892.56;4786231;28;20113;-84
2022/09/01 02:08:56;;;;;;;2.08;1.10;;;;;;;-145.06;100.00;60892.56;4798544;28;20018;-84
2022/09/01 02:11:36;;;;;;;1.13;1.00;;;;;;;-145.06;100.00;60892.56;4792906;28;21263;-84
2022/09/01 02:14:19;;;;;;;1.17;1.05;;;;;;;-145.06;100.00;60892.56;4806852;28;20109;-83
2022/09/01 02:17:00;;;;;;;1.17;0.90;;;;;;;-145.06;100.00;60892.56;4796331;28;20481;-84
2022/09/01 02:19:41;;;;;;;1.10;1.00;;;;;;;-145.06;100.00;60892.56;4795037;28;20133;-83
2022/09/01 02:22:20;;;;;;;1.23;0.88;;;;;;;-145.06;100.00;60892.56;4786116;28;20034;-84
2022/09/01 02:24:59;;;;;;;1.40;0.80;;;;;;;-145.06;100.00;60892.56;4785933;28;20052;-84
2022/09/01 02:27:38;;;;;;;1.00;0.90;;;;;;;-145.06;100.00;60892.56;4797008;28;20027;-84
2022/09/01 02:30:18;;;;;;;0.73;0.73;;;;;;;-145.06;100.00;60892.56;4780251;28;20035;-83
2022/09/01 02:32:58;;;;;;;1.15;0.75;;;;;;;-145.06;100.00;60892.56;4796106;28;20129;-83
2022/09/01 02:35:37;;;;;;;1.48;0.98;;;;;;;-145.06;100.00;60892.56;4801142;28;20030;-84
2022/09/01 02:38:16;;;;;;;2.20;0.88;;;;;;;-145.06;100.00;60892.56;4783674;28;20228;-84
2022/09/01 02:40:57;;;;;;;0.82;0.82;;;;;;;-145.06;100.00;60892.56;4797964;28;20113;-84
2022/09/01 02:43:36;;;;;;;0.80;0.80;;;;;;;-145.06;100.00;60892.56;4780929;28;20042;-84
2022/09/01 02:46:15;;;;;;;1.35;0.90;;;;;;;-145.06;100.00;60892.56;4780953;28;20034;-84
2022/09/01 02:48:54;;;;;;;1.37;1.03;;;;;;;-145.06;100.00;60892.56;4786853;28;20261;-84
2022/09/01 02:51:33;;;;;;;1.10;1.00;;;;;;;-145.06;100.00;60892.56;4798585;28;20035;-84
2022/09/01 02:54:18;;;;;;;1.55;1.10;;;;;;;-145.06;100.00;60892.56;4783707;28;20042;-83
2022/09/01 02:56:57;;;;;;;1.17;1.00;;;;;;;-145.06;100.00;60892.56;4792974;28;20046;-84
2022/09/01 02:59:37;;;;;;;1.83;1.20;;;;;;;-145.06;100.00;60892.56;4785348;28;20038;-84
2022/09/01 03:02:15;;;;;;;2.00;1.42;;;;;;;-145.06;100.00;60892.56;4781422;28;20043;-83
2022/09/01 03:04:56;;;;;;;1.35;1.00;;;;;;;-145.06;100.00;60892.56;4799096;28;20469;-83
2022/09/01 03:07:35;;;;;;;;;;;;;;;-145.06;100.00;60892.56;4796380;28;20034;-84
2022/09/01 03:10:15;;;;;;;1.00;0.90;;;;;;;-145.06;100.00;60892.56;4798950;28;19914;-83
2022/09/01 03:12:53;;;;;;;;;;;;;;;-145.06;100.00;60892.56;4783387;28;20034;-83
2022/09/01 03:15:35;;;;;;;0.98;0.88;;;;;;;-145.06;100.00;60892.56;4802715;28;19914;-83
2022/09/01 03:18:15;;;;;;;2.85;1.15;;;;;;;-145.06;100.00;60892.56;4784310;28;20022;-84
2022/09/01 03:20:55;;;;;;;1.60;0.90;;;;;;;-145.06;100.00;60892.56;4797790;28;20026;-84
2022/09/01 03:23:34;;;;;;;;;;;;;;;-145.06;100.00;60892.56;4785951;28;20038;-83
2022/09/01 03:26:15;;;;;;;0.90;0.70;;;;;;;-145.06;100.00;60892.56;4806084;28;19913;-84
2022/09/01 03:28:54;;;;;;;1.00;0.90;;;;;;;-145.06;100.00;60892.56;4795941;28;20109;-83
2022/09/01 03:31:34;;;;;;;1.08;0.88;;;;;;;-145.06;100.00;60892.56;4795359;28;20783;-84
2022/09/01 03:34:15;;;;;;;1.08;0.70;;;;;;;-145.06;100.00;60892.56;4793956;28;20459;-84
2022/09/01 03:36:55;;;;;;;1.40;1.00;;;;;;;-145.06;100.00;60892.56;4786243;28;20390;-83
2022/09/01 03:39:35;;;;;;;1.80;1.17;;;;;;;-145.06;100.00;60892.56;4780848;28;20034;-84
2022/09/01 03:42:21;;;;;;;1.70;1.20;;;;;;;-145.06;100.00;60892.56;4770687;28;20019;-84
2022/09/01 03:45:07;;;;;;;0.82;0.82;;;;;;;-145.06;100.00;60892.56;4791966;28;20038;-83
2022/09/01 03:47:46;;;;;;;1.25;0.90;;;;;;;-145.06;100.00;60892.56;4798027;28;20031;-84
2022/09/01 03:50:26;;;;;;;1.90;1.50;;;;;;;-145.06;100.00;60892.56;4785713;28;20390;-83
2022/09/01 03:53:07;;;;;;;1.35;1.05;;;;;;;-145.06;100.00;60892.56;4794808;28;20070;-83
2022/09/01 03:55:47;;;;;;;1.50;1.20;;;;;;;-145.06;100.00;60892.56;4792558;28;20046;-83
2022/09/01 03:58:26;;;;;;;;;;;;;;;-145.06;100.00;60892.56;4801756;28;20113;-84
2022/09/01 04:01:04;;;;;;;1.95;0.93;;;;;;;-145.06;100.00;60892.56;4799249;28;20280;-84
2022/09/01 04:03:47;;;;;;;5.38;1.10;;;;;;;-145.06;100.00;60892.56;4798142;28;20105;-84
2022/09/01 04:06:26;;;;;;;1.40;0.88;;;;;;;-145.06;100.00;60892.56;4795584;28;20035;-84
2022/09/01 04:09:06;;;;;;;1.43;0.93;;;;;;;-145.06;100.00;60892.56;4783816;28;20619;-83
2022/09/01 04:11:45;;;;;;;1.15;1.05;;;;;;;-145.06;100.00;60892.56;4793533;28;20030;-84
2022/09/01 04:14:26;;;;;;;1.30;0.90;;;;;;;-145.06;100.00;60892.56;4785945;28;20390;-84
2022/09/01 04:20:07;;;;;;;1.38;1.15;;;;;;;-145.06;100.00;60892.56;4811712;28;20022;-83
2022/09/01 04:22:47;;;;;;;2.28;1.15;;;;;;;-145.06;100.00;60892.56;4807910;28;20031;-84
2022/09/01 04:25:26;;;;;;;1.48;1.10;;;;;;;-145.06;100.00;60892.56;4781991;28;20038;-83
2022/09/01 04:28:13;;;;;;;1.03;0.90;;;;;;;-145.06;100.00;60892.56;4801399;28;20370;-83
2022/09/01 04:30:55;;;;;;;1.02;0.90;;;;;;;-145.06;100.00;60892.56;4778719;28;20042;-83
2022/09/01 04:33:38;;;;;;;1.02;0.90;;;;;;;-145.06;100.00;60892.56;4789077;28;20035;-83
2022/09/01 04:36:24;;;;;;;1.60;1.08;;;;;;;-145.06;100.00;60892.56;4778353;28;20026;-83
2022/09/01 04:39:07;;;;;;;1.13;0.90;;;;;;;-145.06;100.00;60892.56;4797162;28;20022;-83
2022/09/01 04:41:46;;;;;;;1.50;1.00;;;;;;;-145.06;100.00;60892.56;4778645;28;20296;-84
2022/09/01 04:44:27;;;;;;;1.85;1.10;;;;;;;-145.06;100.00;60892.56;4781120;28;20042;-83
2022/09/01 04:47:09;;;;;;;1.20;0.93;;;;;;;-145.06;100.00;60892.56;4800479;28;20034;-83
2022/09/01 04:49:48;;;;;;;1.48;1.10;;;;;;;-145.06;100.00;60892.56;4794144;28;20465;-83
2022/09/01 04:52:28;;;;;;;1.27;1.08;;;;;;;-145.06;100.00;60892.56;4788246;28;20374;-82
2022/09/01 04:55:16;;;;;;;1.70;1.23;;;;;;;-145.06;100.00;60892.56;4792837;28;20026;-83
2022/09/01 04:58:00;;;;;;;2.13;1.33;;;;;;;-145.06;100.00;60892.56;4786585;28;20035;-83
2022/09/01 05:00:39;;;;;;;1.55;1.27;;;;;;;-145.06;100.00;60892.56;4777706;28;20042;-83
2022/09/01 05:03:22;;;;;;;1.50;1.20;;;;;;;-145.06;100.00;60892.56;4798417;28;20421;-83
2022/09/01 05:06:02;;;;;;;1.20;1.10;;;;;;;-145.06;100.00;60892.56;4793319;28;20031;-83
2022/09/01 05:08:42;;;;;;;1.77;1.10;;;;;;;-145.06;100.00;60892.56;4798472;28;20193;-84
2022/09/01 05:11:22;;;;;;;1.30;1.00;;;;;;;-145.06;100.00;60892.56;4778280;28;20070;-84
2022/09/01 05:14:04;;;;;;;2.80;1.45;;;;;;;-145.06;100.00;60892.56;4794713;28;20109;-84
2022/09/01 05:16:43;;;;;;;2.20;1.50;;;;;;;-145.06;100.00;60892.56;4794797;28;20453;-84
2022/09/01 05:19:24;;;;;;;;;;;;;;;-145.06;100.00;60892.56;4784489;28;20030;-84
2022/09/01 05:22:03;;;;;;;1.40;0.88;;;;;;;-145.06;100.00;60892.56;4802921;28;19918;-84
2022/09/01 05:24:42;;;;;;;1.10;1.00;;;;;;;-145.06;100.00;60892.56;4779391;28;20034;-84
2022/09/01 05:27:22;;;;;;;1.30;1.05;;;;;;;-145.06;100.00;60892.56;4796209;28;20421;-84
2022/09/01 05:30:07;;;;;;;1.83;1.00;;;;;;;-145.06;100.00;60892.56;4798248;28;20030;-84
2022/09/01 05:32:47;;;;;;;1.45;1.23;;;;;;;-145.06;100.00;60892.56;4784887;28;20257;-86
2022/09/01 05:35:28;;;;;;;1.20;1.10;;;;;;;-145.06;100.00;60892.56;4788252;28;20485;-86
2022/09/01 05:38:11;;;;;;;1.85;1.40;;;;;;;-145.06;100.00;60892.56;4783320;28;20059;-87
2022/09/01 05:41:02;;;;;;;2.33;1.10;;;;;;;-145.06;100.00;60892.56;4802908;28;20319;-86
2022/09/01 05:43:45;;;;;;;1.80;1.40;;;;;;;-145.06;100.00;60892.56;4785819;28;20034;-86
2022/09/01 05:46:26;;;;;;;1.20;1.02;;;;;;;-145.06;100.00;60892.56;4798220;28;20038;-87
2022/09/01 05:49:08;;;;;;;1.60;1.23;;;;;;;-145.06;100.00;60892.56;4795722;28;20022;-85
2022/09/01 05:51:50;;;;;;;1.88;1.30;;;;;;;-145.06;100.00;60892.56;4793433;28;20301;-86
2022/09/01 05:54:31;;;;;;;1.30;1.20;;;;;;;-145.06;100.00;60892.56;4802307;28;20398;-87
2022/09/01 05:57:10;;;;;;;1.10;1.00;;;;;;;-145.06;100.00;60892.56;4807963;28;20034;-85
2022/09/01 05:59:52;;;;;;;1.20;0.90;;;;;;;-145.06;100.00;60892.56;4789849;28;20030;-86
2022/09/01 06:02:32;;;;;;;1.20;0.93;;;;;;;-145.06;100.00;60892.56;4781767;28;20034;-86
2022/09/01 06:05:14;;;;;;;1.65;1.27;;;;;;;-145.06;100.00;60892.56;4785600;28;20035;-86
2022/09/01 06:07:54;;;;;;;1.17;0.95;;;;;;;-145.06;100.00;60892.56;4786826;28;20026;-87
2022/09/01 06:10:38;;;;;;;1.52;1.25;;;;;;;-145.06;100.00;60892.56;4798732;28;20038;-86
2022/09/01 06:13:20;;;;;;;1.27;1.08;;;;;;;-145.06;100.00;60892.56;4788416;28;20027;-86
2022/09/01 06:16:00;;;;;;;1.80;1.08;;;;;;;-145.06;100.00;60892.56;4784757;28;20066;-86
2022/09/01 06:18:42;;;;;;;1.48;1.17;;;;;;;-145.06;100.00;60892.56;4786132;28;20347;-86
2022/09/01 06:21:21;;;;;;;1.27;1.13;;;;;;;-145.06;100.00;60892.56;4797425;28;20050;-86
2022/09/01 06:24:00;;;;;;;4.00;1.23;;;;;;;-145.06;100.00;60892.56;4784077;28;20156;-86
2022/09/01 06:26:39;;;;;;;1.23;1.03;;;;;;;-145.06;100.00;60892.56;4797141;28;20042;-86
2022/09/01 06:29:19;;;;;;;1.42;1.00;;;;;;;-145.06;100.00;60892.56;4805674;28;20030;-86
2022/09/01 06:32:01;;;;;;;1.40;1.17;;;;;;;-145.06;100.00;60892.56;4795505;28;20038;-86
2022/09/01 06:34:43;;;;;;;1.20;1.00;;;;;;;-145.06;100.00;60892.56;4782193;28;20497;-83
2022/09/01 06:37:21;;;;;;;2.10;1.17;;;;;;;-145.06;100.00;60892.56;4799595;28;20039;-84
2022/09/01 06:40:02;;;;;;;1.55;1.10;;;;;;;-145.06;100.00;60892.56;4783544;28;20034;-84
2022/09/01 06:42:46;;;;;;;1.45;1.20;;;;;;;-145.06;100.00;60892.56;4786063;28;20035;-84
2022/09/01 06:45:25;;;;;;;1.50;1.10;;;;;;;-145.06;100.00;60892.56;4797460;28;20208;-84
2022/09/01 06:48:04;;;;;;;1.83;1.08;;;;;;;-145.06;100.00;60892.56;4798604;28;20156;-85
2022/09/01 06:50:44;;;;;;;1.45;1.08;;;;;;;-145.06;100.00;60892.56;4781736;28;20039;-84
2022/09/01 06:53:23;;;;;;;0.85;0.70;;;;;;;-145.06;100.00;60892.56;4784471;28;20038;-83
2022/09/01 06:56:02;;;;;;;0.73;0.67;;;;;;;-145.06;100.00;60892.56;4805607;28;20171;-83
2022/09/01 06:58:46;;;;;;;0.75;0.60;;;;;;;-145.06;100.00;60892.56;4803191;28;20404;-84
2022/09/01 07:01:26;;;;;;;3.90;0.50;;;;;;;-145.06;100.00;60892.56;4785573;28;20026;-84
2022/09/01 07:04:05;;;;;;;0.60;0.50;;;;;;;-145.06;100.00;60892.56;4788495;28;20030;-84
2022/09/01 07:06:46;;;;;;;0.52;0.40;;;;;;;-145.06;100.00;60892.56;4791396;28;20290;-84
2022/09/01 07:09:28;;;;;;;0.50;0.50;;;;;;;-145.06;100.00;60892.56;4786117;28;20035;-85
2022/09/01 07:12:07;;;;;;;0.70;0.50;;;;;;;-145.06;100.00;60892.56;4799073;28;20639;-85
2022/09/01 07:14:48;;;;;;;0.67;0.40;;;;;;;-145.06;100.00;60892.56;4778890;28;20117;-85
2022/09/01 07:17:29;;;;;;;1.08;0.70;;;;;;;-145.06;100.00;60892.56;4780369;28;20042;-85
2022/09/01 07:20:10;;;;;;;1.30;0.50;;;;;;;-145.06;100.00;60892.56;4782720;28;20065;-85
2022/09/01 07:22:50;;;;;;;1.08;0.75;;;;;;;-145.06;100.00;60892.56;4798787;28;20110;-86
2022/09/01 07:25:33;;;;;;;3.13;0.50;;;;;;;-145.06;100.00;60892.56;4795496;28;20042;-84
2022/09/01 07:28:14;;;;;;;1.23;0.40;;;;;;;-145.06;100.00;60892.56;4794268;28;20465;-84
2022/09/01 07:30:53;;;;;;;0.30;0.30;;;;;;;-145.06;100.00;60892.56;4781314;28;20030;-85
2022/09/01 07:33:32;;;;;;;0.83;0.50;;;;;;;-145.06;100.00;60892.56;4793354;28;20043;-85
2022/09/01 07:36:11;;;;;;;0.80;0.60;;;;;;;-145.06;100.00;60892.56;4800594;28;20265;-85
2022/09/01 07:38:53;;;;;;;0.90;0.50;;;;;;;-145.06;100.00;60892.56;4794891;28;20035;-85
2022/09/01 07:41:33;;;;;;;0.30;0.30;;;;;;;-145.06;100.00;60892.56;4777802;28;20043;-84
2022/09/01 07:44:13;;;;;;;;;;;;;;;-145.06;100.00;60892.56;4792706;28;20113;-85
2022/09/01 07:46:52;;;;;;;;;;;;;;;-145.06;100.00;60892.56;4796279;28;19914;-85
2022/09/01 07:49:31;;;;;;;0.40;0.40;;;;;;;-145.06;100.00;60892.56;4794825;28;19922;-85
2022/09/01 07:52:11;;;;;;;0.43;0.30;;;;;;;-145.06;100.00;60892.56;4794912;28;20130;-85
2022/09/01 07:54:50;;;;;;;0.45;0.38;;;;;;;-145.06;100.00;60892.56;4796117;28;20038;-85
2022/09/01 07:57:28;;;;;;;0.97;0.30;;;;;;;-145.06;100.00;60892.56;4793995;28;20394;-84
2022/09/01 08:00:11;;;;;;;0.40;0.40;;;;;;;-145.06;100.00;60892.56;4799744;28;20030;-85
2022/09/01 08:02:51;;;;;;;0.30;0.30;;;;;;;-145.06;100.00;60892.56;4790189;28;20352;-85
2022/09/01 08:05:30;;;;;;;0.75;0.60;;;;;;;-145.06;100.00;60892.56;4791405;28;20527;-85
2022/09/01 08:08:09;;;;;;;1.77;0.50;;;;;;;-145.06;100.00;60892.56;4794211;28;20038;-85
2022/09/01 08:10:48;;;;;;;0.73;0.40;;;;;;;-145.06;100.00;60892.56;4781210;28;20034;-85
2022/09/01 08:13:27;;;;;;;0.50;0.40;;;;;;;-145.06;100.00;60892.56;4782175;28;20121;-85
2022/09/01 08:16:07;;;;;;;0.52;0.52;;;;;;;-145.06;100.00;60892.56;4793189;28;20034;-85
2022/09/01 08:18:46;;;;;;;0.50;0.50;;;;;;;-145.06;100.00;60892.56;4793708;28;20409;-85
2022/09/01 08:21:26;;;;;;;0.50;0.43;;;;;;;-145.06;100.00;60892.56;4785151;28;20022;-85
2022/09/01 08:24:05;;;;;;;0.45;0.45;;;;;;;-145.06;100.00;60892.56;4781165;28;20043;-85
2022/09/01 08:26:44;;;;;;;0.35;0.35;;;;;;;-145.06;100.00;60892.56;4796467;28;20038;-85
2022/09/01 08:29:23;;;;;;;0.50;0.50;;;;;;;-145.06;100.00;60892.56;4797161;28;20429;-85
2022/09/01 08:32:02;;;;;;;0.47;0.43;;;;;;;-145.06;100.00;60892.56;4797424;28;20540;-85
2022/09/01 08:34:42;;;;;;;0.50;0.40;;;;;;;-145.06;100.00;60892.56;4785036;28;20504;-85
2022/09/01 08:37:22;;;;;;;0.40;0.40;;;;;;;-145.06;100.00;60892.56;4786321;28;20031;-84
2022/09/01 08:40:01;;;;;;;0.57;0.40;;;;;;;-145.06;100.00;60892.56;4783467;28;20030;-85
2022/09/01 08:42:49;;;;;;;0.47;0.40;;;;;;;-145.06;100.00;60892.56;4795920;28;20051;-85
2022/09/01 08:45:34;;;;;;;0.40;0.40;;;;;;;-145.06;100.00;60892.56;4780974;28;20026;-85
2022/09/01 08:48:23;;;;;;;0.90;0.43;;;;;;;-145.06;100.00;60892.56;4800521;28;20309;-85
2022/09/01 08:51:14;;;;;;;0.43;0.30;;;;;;;-145.06;100.00;60892.56;4800825;28;20042;-85
2022/09/01 08:54:05;;;;;;;0.40;0.32;;;;;;;-145.06;100.00;60892.56;4789735;28;20038;-85
2022/09/01 08:56:46;;;;;;;0.47;0.30;;;;;;;-145.06;100.00;60892.56;4798203;28;20121;-85
2022/09/01 08:59:26;;;;;;;0.55;0.40;;;;;;;-145.06;100.00;60892.56;4802997;28;20030;-85
2022/09/01 09:02:39;;;;;;;0.52;0.38;;;;;;;-145.06;100.00;60892.56;4797341;28;20047;-85
2022/09/01 09:05:40;;;;;;;0.45;0.38;;;;;;;-145.06;100.00;60892.56;4787769;28;20394;-85
2022/09/01 09:08:37;;;;;;;0.30;0.30;;;;;;;-145.06;100.00;60892.56;4792357;28;20324;-85
2022/09/01 09:11:22;;;;;;;0.30;0.30;;;;;;;-145.06;100.00;60892.56;4808637;28;20054;-85
2022/09/01 09:14:13;;;;;;;0.40;0.40;;;;;;;-145.06;100.00;60892.56;4797572;28;20039;-85
2022/09/01 09:16:54;;;;;;;0.50;0.30;;;;;;;-145.06;100.00;60892.56;4798246;28;20034;-85
2022/09/01 09:19:38;;;;;;;0.40;0.40;;;;;;;-145.06;100.00;60892.56;4804926;28;20066;-86
2022/09/01 09:22:18;;;;;;;0.40;0.30;;;;;;;-145.06;100.00;60892.56;4793261;28;20022;-85
2022/09/01 09:25:13;;;;;;;0.60;0.43;;;;;;;-145.06;100.00;60892.56;4799546;28;20054;-85
2022/09/01 09:27:52;;;;;;;0.45;0.40;;;;;;;-145.06;100.00;60892.56;4805918;28;20034;-85
2022/09/01 09:30:31;;;;;;;0.38;0.30;;;;;;;-145.06;100.00;60892.56;4783704;28;20043;-85
2022/09/01 09:33:37;;;;;;;0.40;0.20;;;;;;;-145.06;100.00;60892.56;4782382;28;20034;-85
2022/09/01 09:36:27;;;;;;;0.65;0.30;;;;;;;-145.06;100.00;60892.56;4801474;28;20030;-85
2022/09/01 09:39:09;;;;;;;0.40;0.30;;;;;;;-145.06;100.00;60892.56;4784404;28;20027;-86
2022/09/01 09:42:11;;;;;;;0.40;0.30;;;;;;;-145.06;100.00;60892.56;4783238;28;20042;-85
2022/09/01 09:44:51;;;;;;;0.10;0.10;;;;;;;-145.06;100.00;60892.56;4786402;28;20342;-85
2022/09/01 09:47:38;;;;;;;0.60;0.40;;;;;;;-145.06;100.00;60892.56;4790553;28;20370;-85
2022/09/01 09:50:30;;;;;;;0.40;0.30;;;;;;;-145.06;100.00;60892.56;4782619;28;20370;-85
2022/09/01 09:53:13;;;;;;;0.65;0.30;;;;;;;-145.06;100.00;60892.56;4803224;28;20504;-86
2022/09/01 09:56:01;;;;;;;0.35;0.32;;;;;;;-145.06;100.00;60892.56;4808687;28;20034;-85
2022/09/01 09:58:42;;;;;;;0.20;0.20;;;;;;;-145.06;100.00;60892.56;4790753;28;20046;-85
2022/09/01 10:01:22;;;;;;;0.30;0.28;;;;;;;-145.06;100.00;60892.56;4798266;28;20382;-84
2022/09/01 10:04:03;;;;;;;0.30;0.25;;;;;;;-145.06;100.00;60892.56;4784222;28;20113;-86
2022/09/01 10:06:46;;;;;;;0.40;0.20;;;;;;;-145.06;100.00;60892.56;4783322;28;20034;-86
2022/09/01 10:09:25;;;;;;;0.30;0.28;;;;;;;-145.06;100.00;60892.56;4783391;28;20291;-85
2022/09/01 10:12:05;;;;;;;0.47;0.32;;;;;;;-145.06;100.00;60892.56;4802550;28;20027;-85
2022/09/01 10:14:51;;;;;;;0.22;0.22;;;;;;;-145.06;100.00;60892.56;4780991;28;20390;-85
2022/09/01 10:17:35;;;;;;;0.32;0.22;;;;;;;-145.06;100.00;60892.56;4796298;28;20062;-85
2022/09/01 10:20:20;;;;;;;0.70;0.20;;;;;;;-145.06;100.00;60892.56;4797096;28;20366;-85
2022/09/01 10:23:01;;;;;;;0.30;0.20;;;;;;;-145.06;100.00;60892.56;4802261;28;20031;-84
2022/09/01 10:25:41;;;;;;;0.40;0.38;;;;;;;-145.06;100.00;60892.56;4776758;28;20038;-85
2022/09/01 10:28:23;;;;;;;0.57;0.20;;;;;;;-145.06;100.00;60892.56;4794460;28;20034;-84
2022/09/01 10:31:02;;;;;;;0.35;0.30;;;;;;;-145.06;100.00;60892.56;4798315;28;20552;-84
2022/09/01 10:33:42;;;;;;;0.60;0.30;;;;;;;-145.06;100.00;60892.56;4781671;28;20034;-84
2022/09/01 10:36:21;;;;;;;0.30;0.20;;;;;;;-145.06;100.00;60892.56;4786105;28;20062;-85
2022/09/01 10:39:01;;;;;;;0.20;0.20;;;;;;;-145.06;100.00;60892.56;4799156;28;20038;-84
2022/09/01 10:41:49;;;;;;;0.20;0.20;;;;;;;-145.06;100.00;60892.56;4791643;28;20126;-85
2022/09/01 10:44:33;;;;;;;0.30;0.25;;;;;;;-145.06;100.00;60892.56;4803634;28;20043;-85
2022/09/01 10:47:32;;;;;;;0.52;0.30;;;;;;;-145.06;100.00;60892.56;4794841;28;20038;-85
2022/09/01 10:50:23;;;;;;;0.20;0.20;;;;;;;-145.06;100.00;60892.56;4796779;28;20039;-85
2022/09/01 10:53:05;;;;;;;0.28;0.20;;;;;;;-145.06;100.00;60892.56;4803572;28;20026;-85
2022/09/01 10:55:58;;;;;;;0.45;0.25;;;;;;;-145.06;100.00;60892.56;4784025;28;20086;-85
2022/09/01 10:59:05;;;;;;;0.30;0.30;;;;;;;-145.06;100.00;60892.56;4806480;28;20109;-85
2022/09/01 11:01:44;;;;;;;1.13;0.20;;;;;;;-145.06;100.00;60892.56;4795905;28;20031;-84
2022/09/01 11:04:45;;;;;;;1.08;0.32;;;;;;;-145.06;100.00;60892.56;4807393;28;20445;-85
2022/09/01 11:07:33;;;;;;;0.13;0.13;;;;;;;-145.06;100.00;60892.56;4782499;28;20485;-85
2022/09/01 11:10:18;;;;;;;0.50;0.20;;;;;;;-145.06;100.00;60892.56;4793385;28;20034;-86
2022/09/01 11:13:25;;;;;;;0.50;0.30;;;;;;;-145.06;100.00;60892.56;4806664;28;20030;-86
2022/09/01 11:16:26;;;;;;;0.30;0.30;;;;;;;-145.06;100.00;60892.56;4799350;28;20369;-85
2022/09/01 11:19:38;;;;;;;0.30;0.30;;;;;;;-145.06;100.00;60892.56;4799775;28;20362;-86
2022/09/01 11:22:32;;;;;;;0.28;0.20;;;;;;;-145.06;100.00;60892.56;4793166;28;20034;-86
2022/09/01 11:25:32;;;;;;;0.40;0.32;;;;;;;-145.06;100.00;60892.56;4796512;28;20042;-85
2022/09/01 11:28:14;;;;;;;0.30;0.20;;;;;;;-145.06;100.00;60892.56;4798491;28;20374;-85
2022/09/01 11:31:07;;;;;;;0.30;0.30;;;;;;;-145.06;100.00;60892.56;4785314;28;20069;-85
2022/09/01 11:33:58;;;;;;;0.20;0.20;;;;;;;-145.06;100.00;60892.56;4787767;28;20026;-85
2022/09/01 11:36:46;;;;;;;0.38;0.30;;;;;;;-145.06;100.00;60892.56;4786087;28;20027;-86
2022/09/01 11:39:38;;;;;;;1.02;0.20;;;;;;;-145.06;100.00;60892.56;4783112;28;20113;-85
2022/09/01 11:42:26;;;;;;;0.20;0.20;;;;;;;-145.06;100.00;60892.56;4800812;28;20030;-86
2022/09/01 11:45:14;;;;;;;0.30;0.25;;;;;;;-145.06;100.00;60892.56;4802102;28;20034;-85
2022/09/01 11:47:57;;;;;;;0.20;0.20;;;;;;;-145.06;100.00;60892.56;4784099;28;20043;-85
2022/09/01 11:50:39;;;;;;;0.20;0.20;;;;;;;-145.06;100.00;60892.56;4789527;28;20038;-85
2022/09/01 11:53:22;;;;;;;0.25;0.22;;;;;;;-145.06;100.00;60892.56;4797420;28;20101;-86
2022/09/01 11:56:30;;;;;;;0.30;0.30;;;;;;;-145.06;100.00;60892.56;4805497;28;20026;-85
2022/09/01 11:59:10;;;;;;;0.30;0.30;;;;;;;-145.06;100.00;60892.56;4776032;28;20038;-85
2022/09/01 12:01:56;;;;;;;0.20;0.20;;;;;;;-145.06;100.00;60892.56;4796735;28;20046;-85
2022/09/01 12:04:36;;;;;;;0.30;0.30;;;;;;;-145.06;100.00;60892.56;4782377;28;20137;-85
2022/09/01 12:07:40;;;;;;;0.35;0.20;;;;;;;-145.06;100.00;60892.56;4798706;28;20030;-86
2022/09/01 12:10:30;;;;;;;1.80;0.20;;;;;;;-145.06;100.00;60892.56;4786709;28;20030;-86
2022/09/01 12:13:17;;;;;;;0.30;0.30;;;;;;;-145.06;100.00;60892.56;4802915;28;20034;-85
2022/09/01 12:15:59;;;;;;;0.25;0.20;;;;;;;-145.06;100.00;60892.56;4790056;28;20034;-86
2022/09/01 12:18:48;;;;;;;0.73;0.30;;;;;;;-145.06;100.00;60892.56;4790865;28;20034;-86
2022/09/01 12:21:31;;;;;;;0.40;0.40;;;;;;;-145.06;100.00;60892.56;4795678;28;20026;-86
2022/09/01 12:24:17;;;;;;;0.20;0.20;;;;;;;-145.06;100.00;60892.56;4801696;28;20034;-85
2022/09/01 12:26:57;;;;;;;0.30;0.30;;;;;;;-145.06;100.00;60892.56;4800638;28;20540;-86
2022/09/01 12:29:36;;;;;;;0.20;0.20;;;;;;;-145.06;100.00;60892.56;4788597;28;20481;-86